Time;durP1;ratioP1;P1;durP2;ratioP2;P2;SDS_P1;SDS_P2;PMS_P1;PMS_P2;Temp;Humidity;BMP_temperature;BMP_pressure;BME280_temperature;BME280_humidity;BME280_pressure;Samples;Min_cycle;Max_cycle;Signal;HPM_P1;HPM_P2
2021/07/27 00:01:31;;;;;;;4.90;4.60;;;18.50;99.90;;;;;;5027651;28;20211;-45
2021/07/27 00:03:57;;;;;;;5.23;4.40;;;18.50;99.90;;;;;;5045192;28;20195;-43
2021/07/27 00:06:24;;;;;;;5.37;4.70;;;18.40;99.90;;;;;;5041974;28;20211;-42
2021/07/27 00:08:52;;;;;;;4.17;3.87;;;18.40;99.90;;;;;;5044641;28;20306;-43
2021/07/27 00:11:18;;;;;;;4.37;4.00;;;18.40;99.90;;;;;;5043160;28;20665;-45
2021/07/27 00:13:45;;;;;;;4.70;4.30;;;18.40;99.90;;;;;;5043318;28;20179;-43
2021/07/27 00:16:12;;;;;;;4.63;4.20;;;18.40;99.90;;;;;;5044068;28;20212;-42
2021/07/27 00:18:38;;;;;;;4.30;3.90;;;18.20;99.90;;;;;;5027357;28;20207;-42
2021/07/27 00:21:05;;;;;;;4.63;4.30;;;18.20;99.90;;;;;;5044734;28;20223;-42
2021/07/27 00:23:33;;;;;;;6.17;4.70;;;18.30;99.90;;;;;;5041151;28;20183;-45
2021/07/27 00:26:01;;;;;;;6.00;4.50;;;18.30;99.90;;;;;;5044983;28;20241;-44
2021/07/27 00:28:28;;;;;;;5.20;4.70;;;18.30;99.90;;;;;;5041151;28;20552;-42
2021/07/27 00:30:54;;;;;;;5.83;5.23;;;18.30;99.90;;;;;;5044652;28;20668;-42
2021/07/27 00:33:21;;;;;;;4.13;3.83;;;18.40;99.90;;;;;;5033584;28;20209;-43
2021/07/27 00:35:47;;;;;;;5.77;5.10;;;18.30;99.90;;;;;;5039251;28;20215;-43
2021/07/27 00:38:19;;;;;;;4.87;4.50;;;18.30;99.90;;;;;;5042760;28;20195;-42
2021/07/27 00:40:47;;;;;;;4.90;4.50;;;18.20;99.90;;;;;;5042797;28;20182;-42
2021/07/27 00:43:16;;;;;;;5.60;5.10;;;18.20;99.90;;;;;;5043611;28;20206;-44
2021/07/27 00:45:43;;;;;;;5.20;4.80;;;18.20;99.90;;;;;;5042351;28;20793;-45
2021/07/27 00:48:10;;;;;;;4.90;4.50;;;18.10;99.90;;;;;;5044287;28;20195;-44
2021/07/27 00:50:38;;;;;;;5.30;4.80;;;18.10;99.90;;;;;;5027480;28;20208;-43
2021/07/27 00:53:05;;;;;;;5.33;4.67;;;18.10;99.90;;;;;;5044449;28;20687;-44
2021/07/27 00:55:34;;;;;;;5.57;5.00;;;18.10;99.90;;;;;;5040209;28;20833;-42
2021/07/27 00:58:01;;;;;;;6.60;5.47;;;18.10;99.90;;;;;;5044178;28;20278;-42
2021/07/27 01:00:29;;;;;;;4.90;4.50;;;18.10;99.90;;;;;;5040079;28;20188;-43
2021/07/27 01:02:56;;;;;;;5.13;4.73;;;18.10;99.90;;;;;;5044054;28;20199;-42
2021/07/27 01:05:24;;;;;;;6.23;5.47;;;18.10;99.90;;;;;;5031443;28;20215;-48
2021/07/27 01:07:51;;;;;;;5.43;4.53;;;18.10;99.90;;;;;;5041508;28;20206;-44
2021/07/27 01:10:18;;;;;;;5.20;4.33;;;18.10;99.90;;;;;;5042173;28;20206;-42
2021/07/27 01:12:46;;;;;;;5.47;4.97;;;18.10;99.90;;;;;;5042749;28;20804;-44
2021/07/27 01:15:13;;;;;;;5.03;4.53;;;18.10;99.90;;;;;;5042925;28;20241;-43
2021/07/27 01:17:42;;;;;;;5.80;5.30;;;18.00;99.90;;;;;;5041082;28;20219;-42
2021/07/27 01:20:16;;;;;;;6.67;5.37;;;18.00;99.90;;;;;;5043475;28;20246;-43
2021/07/27 01:39:24;;;;;;;5.23;4.80;;;17.80;99.90;;;;;;5036006;28;20202;-43
2021/07/27 01:42:11;;;;;;;6.03;5.43;;;17.70;99.90;;;;;;5043029;28;20215;-44
2021/07/27 01:44:44;;;;;;;6.23;5.47;;;17.80;99.90;;;;;;5054707;28;20191;-42
2021/07/27 01:47:12;;;;;;;5.73;5.23;;;17.70;99.90;;;;;;5062900;28;20206;-44
2021/07/27 01:49:38;;;;;;;5.87;5.37;;;17.80;99.90;;;;;;5060159;28;20389;-44
2021/07/27 01:52:09;;;;;;;5.33;4.83;;;17.80;99.90;;;;;;5042417;28;20680;-43
2021/07/27 01:54:52;;;;;;;5.47;4.97;;;17.80;99.90;;;;;;5040120;28;20249;-44
2021/07/27 01:57:19;;;;;;;5.40;4.90;;;17.80;99.90;;;;;;5041335;28;20215;-42
2021/07/27 01:59:47;;;;;;;6.40;5.77;;;17.80;99.90;;;;;;5041528;28;20214;-45
2021/07/27 02:02:14;;;;;;;6.67;5.27;;;17.70;99.90;;;;;;5041912;28;20205;-44
2021/07/27 02:04:40;;;;;;;5.73;5.23;;;17.70;99.90;;;;;;5040814;28;20199;-46
2021/07/27 02:07:07;;;;;;;6.27;5.67;;;17.70;99.90;;;;;;5029649;28;20214;-44
2021/07/27 02:09:38;;;;;;;6.63;6.03;;;17.70;99.90;;;;;;5039260;28;20188;-44
2021/07/27 02:12:12;;;;;;;7.03;6.33;;;17.70;99.90;;;;;;5043223;28;20241;-44
2021/07/27 02:17:19;;;;;;;6.53;5.93;;;17.70;99.90;;;;;;5039257;28;20218;-43
2021/07/27 02:19:46;;;;;;;7.70;6.70;;;17.70;99.90;;;;;;5040915;28;20191;-44
2021/07/27 02:22:13;;;;;;;6.80;6.20;;;17.70;99.90;;;;;;5029026;28;20214;-42
2021/07/27 02:24:40;;;;;;;7.30;5.73;;;17.60;99.90;;;;;;5040297;28;20224;-44
2021/07/27 02:27:09;;;;;;;7.73;6.97;;;17.60;99.90;;;;;;5043211;28;20572;-45
2021/07/27 02:29:35;;;;;;;7.53;6.90;;;17.70;99.90;;;;;;5039102;28;20316;-43
2021/07/27 02:32:02;;;;;;;7.60;6.90;;;17.70;99.90;;;;;;5043118;28;20187;-44
2021/07/27 02:34:31;;;;;;;8.40;7.57;;;17.70;99.90;;;;;;5039468;28;20629;-44
2021/07/27 02:36:58;;;;;;;7.70;7.00;;;17.80;99.90;;;;;;5042702;28;20225;-47
2021/07/27 02:39:25;;;;;;;7.93;7.23;;;17.80;99.90;;;;;;5026053;28;20211;-44
2021/07/27 02:41:51;;;;;;;8.30;7.57;;;17.80;99.90;;;;;;5044624;28;20187;-46
2021/07/27 02:44:19;;;;;;;8.33;7.30;;;17.80;99.90;;;;;;5045102;28;20199;-43
2021/07/27 02:46:46;;;;;;;8.83;8.03;;;17.90;99.90;;;;;;5045328;28;20944;-43
2021/07/27 02:49:12;;;;;;;8.23;7.40;;;17.90;99.90;;;;;;5045741;28;20214;-44
2021/07/27 02:51:39;;;;;;;8.87;8.00;;;17.90;99.90;;;;;;5044159;28;20191;-42
2021/07/27 02:54:07;;;;;;;7.67;6.73;;;17.90;99.90;;;;;;5033320;28;20222;-43
2021/07/27 02:56:33;;;;;;;10.57;7.40;;;18.00;99.90;;;;;;5042538;28;20225;-42
2021/07/27 02:59:00;;;;;;;7.63;6.83;;;18.00;99.90;;;;;;5046699;28;20213;-42
2021/07/27 03:01:28;;;;;;;8.00;7.23;;;18.00;99.90;;;;;;5042471;28;20204;-42
2021/07/27 03:03:55;;;;;;;7.97;7.17;;;18.00;99.90;;;;;;5046924;28;20183;-41
2021/07/27 03:06:21;;;;;;;7.77;6.97;;;18.00;99.90;;;;;;5043950;28;20208;-41
2021/07/27 03:08:51;;;;;;;8.43;7.67;;;18.00;99.90;;;;;;5031612;28;20373;-42
2021/07/27 03:11:18;;;;;;;11.83;7.43;;;18.00;99.90;;;;;;5043413;28;20199;-42
2021/07/27 03:13:45;;;;;;;7.90;7.10;;;18.00;99.90;;;;;;5045172;28;20397;-43
2021/07/27 03:16:17;;;;;;;8.87;7.50;;;17.90;99.90;;;;;;5045246;28;20299;-43
2021/07/27 03:18:47;;;;;;;7.43;6.73;;;17.90;99.90;;;;;;5044345;28;20192;-46
2021/07/27 03:21:14;;;;;;;8.60;7.13;;;17.90;99.90;;;;;;5045031;28;20245;-43
2021/07/27 03:23:41;;;;;;;7.57;6.87;;;17.90;99.90;;;;;;5030089;28;20238;-45
2021/07/27 03:26:08;;;;;;;8.70;7.97;;;18.00;99.90;;;;;;5046292;28;20219;-42
2021/07/27 03:28:35;;;;;;;8.87;7.97;;;18.00;99.90;;;;;;5042538;28;20199;-45
2021/07/27 03:31:01;;;;;;;7.83;7.13;;;18.00;99.90;;;;;;5046166;28;20203;-43
2021/07/27 03:33:28;;;;;;;8.50;7.53;;;17.90;99.90;;;;;;5041865;28;20191;-42
2021/07/27 03:35:56;;;;;;;8.90;8.03;;;17.90;99.90;;;;;;5042516;28;20242;-46
2021/07/27 03:38:23;;;;;;;9.17;8.17;;;17.90;99.90;;;;;;5042323;28;20226;-43
2021/07/27 03:40:50;;;;;;;9.33;7.43;;;17.90;99.90;;;;;;5031520;28;20214;-46
2021/07/27 03:43:17;;;;;;;8.20;7.40;;;17.90;99.90;;;;;;5043179;28;20211;-43
2021/07/27 03:45:43;;;;;;;8.23;7.43;;;17.90;99.90;;;;;;5043208;28;20210;-43
2021/07/27 03:48:10;;;;;;;9.30;8.23;;;17.90;99.90;;;;;;5045180;28;20602;-43
2021/07/27 03:50:37;;;;;;;8.27;7.67;;;17.90;99.90;;;;;;5042109;28;20308;-43
2021/07/27 03:53:05;;;;;;;9.47;7.67;;;17.90;99.90;;;;;;5045739;28;20522;-44
2021/07/27 03:55:32;;;;;;;11.50;9.17;;;17.90;99.90;;;;;;5028166;28;20223;-43
2021/07/27 03:57:59;;;;;;;9.90;9.03;;;17.90;99.90;;;;;;5045616;28;20580;-43
2021/07/27 04:00:26;;;;;;;11.73;10.50;;;17.90;99.90;;;;;;5034372;28;20203;-45
2021/07/27 04:02:52;;;;;;;14.23;12.10;;;17.90;99.90;;;;;;5044269;28;20571;-47
2021/07/27 04:05:19;;;;;;;16.70;10.93;;;17.90;99.90;;;;;;5043137;28;20214;-45
2021/07/27 04:07:45;;;;;;;12.23;11.07;;;18.00;99.90;;;;;;5039253;28;20192;-44
2021/07/27 04:10:14;;;;;;;10.67;8.97;;;18.00;99.90;;;;;;5041651;28;20188;-44
2021/07/27 04:12:40;;;;;;;10.80;9.80;;;18.00;99.90;;;;;;5034165;28;20207;-45
2021/07/27 04:15:08;;;;;;;10.80;9.80;;;18.00;99.90;;;;;;5045220;28;20202;-44
2021/07/27 04:17:35;;;;;;;10.33;9.33;;;18.00;99.90;;;;;;5040774;28;20886;-43
2021/07/27 04:20:01;;;;;;;11.10;10.00;;;18.10;99.90;;;;;;5036707;28;20200;-46
2021/07/27 04:22:28;;;;;;;9.83;8.73;;;18.10;99.90;;;;;;5036354;28;20210;-43
2021/07/27 04:24:57;;;;;;;9.83;8.83;;;18.10;99.90;;;;;;5045363;28;20207;-45
2021/07/27 04:27:25;;;;;;;8.57;7.77;;;18.20;99.90;;;;;;5028472;28;20208;-43
2021/07/27 04:29:51;;;;;;;8.53;7.73;;;18.20;99.90;;;;;;5034986;28;20681;-43
2021/07/27 04:32:18;;;;;;;9.37;8.47;;;18.20;99.90;;;;;;5035505;28;20214;-45
2021/07/27 04:34:45;;;;;;;8.60;7.80;;;18.20;99.90;;;;;;5039375;28;20231;-44
2021/07/27 04:37:11;;;;;;;8.97;8.17;;;18.20;99.90;;;;;;5025142;28;20222;-43
2021/07/27 04:39:40;;;;;;;8.73;8.00;;;18.30;99.90;;;;;;5044522;28;20199;-44
2021/07/27 04:42:07;;;;;;;9.50;8.60;;;18.30;99.90;;;;;;5022414;28;20609;-43
2021/07/27 04:44:35;;;;;;;10.53;9.53;;;18.30;99.90;;;;;;5038540;28;20282;-43
2021/07/27 04:47:02;;;;;;;10.83;9.40;;;18.30;99.90;;;;;;5031409;28;20700;-44
2021/07/27 04:49:28;;;;;;;11.40;9.50;;;18.30;99.90;;;;;;5037284;28;20206;-44
2021/07/27 04:51:56;;;;;;;10.63;9.63;;;18.40;99.90;;;;;;5037438;28;20214;-44
2021/07/27 04:54:30;;;;;;;9.83;8.83;;;18.50;99.90;;;;;;5035677;28;20333;-45
2021/07/27 04:56:57;;;;;;;9.17;8.33;;;18.50;99.90;;;;;;5030694;28;20625;-42
2021/07/27 04:59:24;;;;;;;11.63;8.73;;;18.60;99.90;;;;;;5035063;28;20206;-45
2021/07/27 05:01:52;;;;;;;12.60;10.10;;;18.70;99.90;;;;;;5039115;28;20208;-43
2021/07/27 05:04:18;;;;;;;10.07;8.80;;;18.80;99.90;;;;;;5038430;28;20184;-44
2021/07/27 05:06:45;;;;;;;9.87;8.17;;;18.80;99.90;;;;;;5030220;28;20218;-46
2021/07/27 05:09:12;;;;;;;9.43;8.50;;;18.90;99.90;;;;;;5027110;28;20534;-44
2021/07/27 05:11:38;;;;;;;9.07;8.13;;;18.90;99.90;;;;;;5043666;28;20209;-44
2021/07/27 05:14:07;;;;;;;9.07;8.17;;;18.90;99.90;;;;;;5021773;28;20203;-43
2021/07/27 05:16:33;;;;;;;9.63;8.60;;;18.90;99.90;;;;;;5042024;28;20215;-45
2021/07/27 05:19:23;;;;;;;9.67;8.37;;;18.90;99.90;;;;;;5041294;28;20212;-44
2021/07/27 05:21:54;;;;;;;10.60;9.60;;;19.00;99.90;;;;;;5033015;28;20207;-42
2021/07/27 05:24:22;;;;;;;12.03;10.83;;;19.00;99.90;;;;;;5038515;28;20207;-42
2021/07/27 05:26:49;;;;;;;12.37;10.10;;;19.00;99.90;;;;;;5037873;28;20716;-42
2021/07/27 05:29:17;;;;;;;11.47;10.27;;;19.00;99.90;;;;;;5021063;28;20217;-44
2021/07/27 05:31:44;;;;;;;11.67;10.47;;;19.00;99.90;;;;;;5039473;28;20206;-42
2021/07/27 05:34:11;;;;;;;10.50;9.40;;;19.10;99.90;;;;;;5034332;28;20183;-43
2021/07/27 05:36:38;;;;;;;11.10;9.77;;;19.20;99.90;;;;;;5040074;28;20222;-44
2021/07/27 05:39:05;;;;;;;9.70;8.73;;;19.30;99.90;;;;;;5031251;28;20231;-44
2021/07/27 05:41:32;;;;;;;9.50;8.70;;;19.30;99.90;;;;;;5037660;28;20203;-42
2021/07/27 05:43:58;;;;;;;11.03;10.03;;;19.40;99.90;;;;;;5028317;28;20199;-42
2021/07/27 05:46:25;;;;;;;11.43;10.30;;;19.50;99.90;;;;;;5037090;28;20223;-44
2021/07/27 05:48:53;;;;;;;11.40;10.20;;;19.50;99.90;;;;;;5036023;28;20195;-42
2021/07/27 05:51:21;;;;;;;12.33;9.67;;;19.60;99.90;;;;;;5037092;28;20209;-42
2021/07/27 05:53:49;;;;;;;10.60;9.50;;;19.60;99.90;;;;;;5036051;28;20203;-44
2021/07/27 05:56:16;;;;;;;11.30;10.17;;;19.60;99.90;;;;;;5029585;28;20358;-42
2021/07/27 05:58:42;;;;;;;11.80;10.60;;;19.70;99.90;;;;;;5037335;28;20304;-42
2021/07/27 06:01:09;;;;;;;15.13;11.43;;;19.70;99.90;;;;;;5020467;28;20203;-43
2021/07/27 06:03:36;;;;;;;11.53;10.30;;;19.70;99.90;;;;;;5040432;28;20214;-44
2021/07/27 06:06:03;;;;;;;12.50;11.20;;;19.70;99.90;;;;;;5026958;28;20227;-45
2021/07/27 06:08:30;;;;;;;13.67;12.23;;;19.70;99.90;;;;;;5033535;28;20188;-44
2021/07/27 06:10:57;;;;;;;16.07;13.90;;;19.60;99.90;;;;;;5030462;28;20214;-46
2021/07/27 06:13:24;;;;;;;14.93;12.10;;;19.60;99.90;;;;;;5033223;28;20882;-46
2021/07/27 06:15:51;;;;;;;21.97;12.50;;;19.60;99.90;;;;;;5020360;28;20294;-45
2021/07/27 06:18:17;;;;;;;15.03;12.00;;;19.50;99.90;;;;;;5041117;28;20226;-45
2021/07/27 06:20:44;;;;;;;17.93;13.20;;;19.60;99.90;;;;;;5043031;28;20199;-45
2021/07/27 06:23:11;;;;;;;15.27;13.03;;;19.60;99.90;;;;;;5028708;28;20192;-46
2021/07/27 06:25:37;;;;;;;18.83;12.97;;;19.60;99.90;;;;;;5035221;28;20222;-44
2021/07/27 06:28:06;;;;;;;17.50;13.00;;;19.70;99.90;;;;;;5055646;28;21269;-43
2021/07/27 06:30:33;;;;;;;13.97;12.53;;;19.60;99.90;;;;;;5052375;28;20210;-45
2021/07/27 06:32:59;;;;;;;16.80;12.50;;;19.60;99.90;;;;;;5034577;28;20219;-46
2021/07/27 06:35:26;;;;;;;16.27;13.80;;;19.60;99.90;;;;;;5046270;28;20211;-44
2021/07/27 06:37:54;;;;;;;13.63;12.10;;;19.60;99.90;;;;;;5041857;28;20793;-45
2021/07/27 06:40:21;;;;;;;14.33;12.83;;;19.60;99.90;;;;;;5045313;28;20196;-44
2021/07/27 06:42:47;;;;;;;15.10;12.87;;;19.60;99.90;;;;;;5037728;28;20210;-46
2021/07/27 06:45:20;;;;;;;18.77;14.00;;;19.60;99.90;;;;;;5046925;28;20625;-44
2021/07/27 06:47:47;;;;;;;15.40;12.80;;;19.70;99.90;;;;;;5027729;28;20204;-46
2021/07/27 06:50:16;;;;;;;14.03;12.73;;;19.60;99.90;;;;;;5043533;28;20195;-44
2021/07/27 06:52:42;;;;;;;16.57;13.73;;;19.70;99.90;;;;;;5043889;28;20195;-45
2021/07/27 06:55:09;;;;;;;16.70;12.97;;;19.60;99.90;;;;;;5045821;28;20760;-44
2021/07/27 06:57:36;;;;;;;14.90;12.87;;;19.70;99.90;;;;;;5046791;28;20223;-45
2021/07/27 07:00:03;;;;;;;14.23;12.53;;;19.70;99.90;;;;;;5045815;28;20207;-44
2021/07/27 07:02:31;;;;;;;13.13;11.80;;;19.80;99.90;;;;;;5026822;28;20294;-45
2021/07/27 07:04:58;;;;;;;15.77;12.17;;;19.90;99.90;;;;;;5039199;28;20416;-46
2021/07/27 07:07:24;;;;;;;15.60;11.67;;;20.00;99.90;;;;;;5030517;28;20196;-49
2021/07/27 07:09:51;;;;;;;14.87;12.67;;;20.10;99.90;;;;;;5030807;28;20187;-45
2021/07/27 07:12:18;;;;;;;15.17;13.07;;;20.20;99.90;;;;;;5032111;28;20195;-46
2021/07/27 07:14:44;;;;;;;13.07;11.77;;;20.50;99.90;;;;;;5039539;28;20211;-44
2021/07/27 07:17:12;;;;;;;16.10;12.60;;;20.60;99.90;;;;;;5043213;28;20222;-46
2021/07/27 07:19:40;;;;;;;13.07;11.77;;;20.70;99.90;;;;;;5025470;28;20220;-44
2021/07/27 07:22:08;;;;;;;12.47;11.17;;;20.80;99.90;;;;;;5042421;28;20199;-45
2021/07/27 07:24:35;;;;;;;12.13;10.73;;;20.90;99.90;;;;;;5044228;28;20278;-45
2021/07/27 07:27:01;;;;;;;12.80;10.87;;;21.00;99.90;;;;;;5037604;28;20220;-45
2021/07/27 07:29:28;;;;;;;15.27;12.27;;;21.20;99.90;;;;;;5051384;28;20205;-44
2021/07/27 07:31:54;;;;;;;10.73;9.63;;;21.30;99.90;;;;;;5033018;28;20761;-44
2021/07/27 07:34:21;;;;;;;10.43;9.20;;;21.40;99.90;;;;;;5031778;28;20192;-48
2021/07/27 07:36:50;;;;;;;8.67;7.77;;;21.40;99.90;;;;;;5037296;28;20208;-46
2021/07/27 07:39:16;;;;;;;11.27;8.73;;;21.50;99.90;;;;;;5036933;28;20262;-44
2021/07/27 07:41:43;;;;;;;9.77;8.23;;;21.50;99.90;;;;;;5026740;28;20569;-46
2021/07/27 07:44:10;;;;;;;9.40;8.13;;;21.50;99.90;;;;;;5044343;28;20207;-45
2021/07/27 07:46:36;;;;;;;9.87;8.73;;;21.50;99.90;;;;;;5041711;28;20254;-45
2021/07/27 07:49:03;;;;;;;10.63;7.83;;;21.40;99.90;;;;;;5025287;28;21180;-44
2021/07/27 07:51:30;;;;;;;11.27;10.23;;;21.50;99.90;;;;;;5041221;28;20199;-47
2021/07/27 07:53:58;;;;;;;9.80;8.87;;;21.50;99.90;;;;;;5042427;28;20205;-44
2021/07/27 07:56:24;;;;;;;10.73;9.73;;;21.50;99.90;;;;;;5042300;28;20257;-44
2021/07/27 07:58:51;;;;;;;12.97;9.47;;;21.60;99.90;;;;;;5037632;28;20223;-44
2021/07/27 08:01:18;;;;;;;9.90;8.90;;;21.60;99.90;;;;;;5049613;28;20838;-45
2021/07/27 08:03:44;;;;;;;12.43;9.80;;;21.60;99.90;;;;;;5024480;28;20204;-44
2021/07/27 08:06:11;;;;;;;11.93;10.20;;;21.70;99.90;;;;;;5040448;28;20230;-46
2021/07/27 08:08:39;;;;;;;9.33;8.40;;;21.80;99.90;;;;;;5041358;28;20547;-48
2021/07/27 08:11:07;;;;;;;11.30;9.80;;;21.90;99.90;;;;;;5038404;28;20220;-48
2021/07/27 08:13:34;;;;;;;11.30;8.77;;;21.90;99.90;;;;;;5037778;28;20203;-45
2021/07/27 08:16:00;;;;;;;8.17;7.37;;;21.90;99.90;;;;;;5041910;28;20227;-48
2021/07/27 08:18:27;;;;;;;8.80;7.20;;;21.90;99.90;;;;;;5046999;28;20715;-45
2021/07/27 08:20:53;;;;;;;10.07;8.70;;;22.00;99.90;;;;;;5025385;28;20200;-46
2021/07/27 08:23:20;;;;;;;11.10;8.87;;;22.00;99.90;;;;;;5046965;28;20218;-48
2021/07/27 08:25:46;;;;;;;11.00;8.63;;;22.00;99.90;;;;;;5035915;28;20219;-44
2021/07/27 08:28:14;;;;;;;11.17;9.33;;;21.90;99.90;;;;;;5039526;28;20206;-46
2021/07/27 08:30:41;;;;;;;8.70;7.80;;;21.80;99.90;;;;;;5029426;28;20206;-43
2021/07/27 08:33:08;;;;;;;9.17;8.27;;;21.80;99.90;;;;;;5036055;28;20207;-44
2021/07/27 08:35:34;;;;;;;10.57;7.93;;;21.80;99.90;;;;;;5026323;28;20227;-47
2021/07/27 08:38:01;;;;;;;8.90;8.00;;;21.90;99.90;;;;;;5036321;28;20218;-48
2021/07/27 08:40:33;;;;;;;10.20;9.23;;;21.90;99.90;;;;;;5030323;28;20188;-45
2021/07/27 08:43:02;;;;;;;8.43;7.60;;;21.90;99.90;;;;;;5033665;28;20634;-48
2021/07/27 08:45:31;;;;;;;10.93;7.70;;;21.80;99.90;;;;;;5037747;28;20215;-44
2021/07/27 08:47:59;;;;;;;11.43;8.50;;;21.80;99.90;;;;;;5038804;28;20238;-45
2021/07/27 08:50:26;;;;;;;7.93;7.03;;;21.80;99.90;;;;;;5025026;28;20204;-49
2021/07/27 08:52:53;;;;;;;10.43;6.90;;;21.80;99.90;;;;;;5042436;28;20194;-45
2021/07/27 08:55:20;;;;;;;9.63;8.60;;;21.80;99.90;;;;;;5039549;28;20285;-45
2021/07/27 08:57:53;;;;;;;9.97;8.23;;;21.80;99.90;;;;;;5036114;28;20275;-46
2021/07/27 09:00:20;;;;;;;9.60;8.13;;;21.70;99.90;;;;;;5039885;28;20291;-44
2021/07/27 09:02:48;;;;;;;9.20;7.83;;;21.50;99.90;;;;;;5045472;28;20206;-45
2021/07/27 09:05:15;;;;;;;9.10;8.20;;;21.50;99.90;;;;;;5040670;28;20226;-46
2021/07/27 09:07:41;;;;;;;9.77;7.43;;;21.50;99.90;;;;;;5029263;28;20211;-46
2021/07/27 09:10:16;;;;;;;9.50;8.57;;;21.40;99.90;;;;;;5041209;28;20688;-45
2021/07/27 09:12:57;;;;;;;7.80;7.00;;;21.50;99.90;;;;;;5040425;28;20187;-48
2021/07/27 09:15:27;;;;;;;7.37;6.67;;;21.50;99.90;;;;;;5022353;28;20219;-44
2021/07/27 09:17:57;;;;;;;7.23;6.53;;;21.60;99.90;;;;;;5037638;28;20568;-45
2021/07/27 09:20:28;;;;;;;7.77;7.00;;;21.80;99.90;;;;;;5037857;28;20203;-46
2021/07/27 09:22:55;;;;;;;8.33;7.47;;;21.90;99.90;;;;;;5028559;28;20208;-45
2021/07/27 09:25:25;;;;;;;13.33;7.60;;;21.90;99.90;;;;;;5035635;28;20219;-48
2021/07/27 09:28:06;;;;;;;9.10;8.03;;;22.00;99.90;;;;;;5036966;28;20227;-44
2021/07/27 09:30:34;;;;;;;8.07;7.30;;;22.10;99.90;;;;;;5034470;28;20224;-44
2021/07/27 09:33:02;;;;;;;8.20;7.10;;;22.20;99.90;;;;;;5037867;28;20207;-44
2021/07/27 09:35:29;;;;;;;7.33;6.63;;;22.20;99.90;;;;;;5052520;28;20230;-45
2021/07/27 09:38:07;;;;;;;7.20;6.50;;;22.30;99.90;;;;;;5039961;28;20191;-45
2021/07/27 09:40:35;;;;;;;7.15;6.22;;;22.30;99.90;;;;;;5025092;28;20578;-45
2021/07/27 09:43:02;;;;;;;6.67;5.87;;;22.30;99.90;;;;;;5036007;28;20191;-49
2021/07/27 09:45:30;;;;;;;6.90;6.03;;;22.40;99.90;;;;;;5030401;28;20883;-47
2021/07/27 09:47:56;;;;;;;8.93;6.68;;;22.50;99.90;;;;;;5030206;28;20211;-45
2021/07/27 09:50:25;;;;;;;6.60;6.00;;;22.50;99.90;;;;;;5031997;28;20207;-45
2021/07/27 09:52:52;;;;;;;8.25;6.28;;;22.50;99.90;;;;;;5036648;28;20553;-45
2021/07/27 09:55:22;;;;;;;8.23;7.15;;;22.50;99.90;;;;;;5020810;28;20233;-45
2021/07/27 09:57:48;;;;;;;8.90;6.55;;;22.60;99.90;;;;;;5039963;28;20626;-45
2021/07/27 10:00:16;;;;;;;9.13;8.23;;;22.50;99.90;;;;;;5031991;28;20208;-46
2021/07/27 10:02:46;;;;;;;7.88;7.13;;;22.60;99.90;;;;;;5031697;28;20213;-45
2021/07/27 10:05:14;;;;;;;6.35;5.70;;;22.70;99.90;;;;;;5035624;28;20227;-45
2021/07/27 10:07:42;;;;;;;8.07;6.68;;;22.70;99.90;;;;;;5035668;28;20534;-45
2021/07/27 10:10:10;;;;;;;7.65;6.80;;;23.10;99.90;;;;;;5032020;28;20714;-45
2021/07/27 10:12:38;;;;;;;8.88;6.97;;;23.20;99.90;;;;;;5032170;28;20207;-46
2021/07/27 10:15:14;;;;;;;7.85;7.07;;;23.00;99.90;;;;;;5036472;28;20199;-44
2021/07/27 10:17:51;;;;;;;8.27;7.47;;;22.90;99.90;;;;;;5030031;28;20214;-44
2021/07/27 10:20:25;;;;;;;10.25;7.43;;;22.70;99.90;;;;;;5038470;28;20226;-46
2021/07/27 10:22:53;;;;;;;14.27;9.15;;;22.50;99.90;;;;;;5030796;28;20194;-48
2021/07/27 10:25:20;;;;;;;9.40;8.50;;;22.40;99.90;;;;;;5030440;28;20228;-45
2021/07/27 10:27:48;;;;;;;11.18;8.20;;;22.30;99.90;;;;;;5024302;28;20269;-45
2021/07/27 10:30:16;;;;;;;11.68;9.20;;;22.30;99.90;;;;;;5040907;28;20214;-46
2021/07/27 10:32:53;;;;;;;9.15;8.20;;;22.40;99.90;;;;;;5039711;28;20215;-48
2021/07/27 10:35:27;;;;;;;9.40;7.85;;;22.50;99.90;;;;;;5039352;28;20218;-48
2021/07/27 10:37:56;;;;;;;8.43;6.47;;;22.60;99.90;;;;;;5034123;28;20199;-48
2021/07/27 10:40:29;;;;;;;8.43;7.10;;;22.70;99.90;;;;;;5042346;28;20225;-47
2021/07/27 10:42:56;;;;;;;7.63;6.90;;;22.60;99.90;;;;;;5025339;28;20223;-47
2021/07/27 10:45:23;;;;;;;8.52;7.10;;;22.60;99.90;;;;;;5036673;28;20214;-47
2021/07/27 10:47:51;;;;;;;10.32;8.10;;;22.80;99.90;;;;;;5037611;28;20219;-46
2021/07/27 10:50:18;;;;;;;10.38;6.82;;;22.90;99.90;;;;;;5037043;28;20604;-49
2021/07/27 10:52:45;;;;;;;7.70;6.88;;;23.00;99.90;;;;;;5029403;28;20222;-45
2021/07/27 10:55:14;;;;;;;9.07;7.90;;;23.20;99.90;;;;;;5041323;28;20211;-47
2021/07/27 10:57:47;;;;;;;8.77;7.78;;;23.20;99.90;;;;;;5023735;28;20585;-48
2021/07/27 11:00:15;;;;;;;8.50;7.47;;;23.00;99.90;;;;;;5037228;28;20215;-44
2021/07/27 11:02:42;;;;;;;8.98;7.32;;;22.90;99.90;;;;;;5041173;28;20202;-46
2021/07/27 11:05:09;;;;;;;9.05;7.78;;;23.10;99.90;;;;;;5036040;28;20207;-44
2021/07/27 11:07:36;;;;;;;11.07;8.80;;;23.30;99.90;;;;;;5043141;28;20195;-47
2021/07/27 11:10:05;;;;;;;8.38;7.57;;;23.30;99.90;;;;;;5040124;28;20924;-45
2021/07/27 11:12:35;;;;;;;8.45;7.05;;;23.20;99.90;;;;;;5031524;28;20208;-49
2021/07/27 11:15:06;;;;;;;10.95;7.13;;;23.30;99.90;;;;;;5034072;28;20184;-50
2021/07/27 11:17:33;;;;;;;7.70;6.90;;;23.20;99.90;;;;;;5045125;28;20282;-45
2021/07/27 11:20:00;;;;;;;7.63;6.88;;;23.20;99.90;;;;;;5042442;28;20218;-46
2021/07/27 11:22:28;;;;;;;8.00;6.53;;;;;;;;;;5042250;28;20553;-47
2021/07/27 11:24:54;;;;;;;8.15;6.68;;;23.40;99.90;;;;;;5034336;28;20833;-46
2021/07/27 11:27:28;;;;;;;8.18;7.43;;;23.50;99.90;;;;;;5045608;28;20203;-46
2021/07/27 11:29:59;;;;;;;8.27;7.35;;;23.60;99.90;;;;;;5023933;28;20889;-45
2021/07/27 11:32:37;;;;;;;7.07;6.43;;;23.70;99.90;;;;;;5035415;28;20199;-51
2021/07/27 11:35:04;;;;;;;9.40;6.85;;;23.90;99.90;;;;;;5033457;28;20977;-45
2021/07/27 11:37:31;;;;;;;9.32;8.32;;;24.10;99.90;;;;;;5037145;28;20207;-45
2021/07/27 11:39:57;;;;;;;7.65;6.93;;;24.20;99.90;;;;;;5037844;28;20427;-44
2021/07/27 11:42:31;;;;;;;10.13;9.13;;;24.20;99.90;;;;;;5043945;28;22179;-44
2021/07/27 11:45:01;;;;;;;9.88;7.70;;;24.10;99.90;;;;;;5023038;28;20208;-45
2021/07/27 11:47:41;;;;;;;9.70;7.78;;;23.90;99.90;;;;;;5044267;28;20210;-44
2021/07/27 11:50:10;;;;;;;10.35;8.63;;;24.00;99.90;;;;;;5033147;28;20246;-44
2021/07/27 11:52:36;;;;;;;10.40;7.75;;;24.10;99.90;;;;;;5039083;28;20201;-43
2021/07/27 11:55:04;;;;;;;9.93;6.90;;;24.20;99.90;;;;;;5037182;28;20323;-44
2021/07/27 11:57:30;;;;;;;7.93;7.22;;;24.20;99.90;;;;;;5037499;28;20568;-45
2021/07/27 12:00:10;;;;;;;10.25;8.02;;;24.30;99.90;;;;;;5026661;28;20343;-48
2021/07/27 12:02:36;;;;;;;10.93;7.85;;;24.30;99.90;;;;;;5039772;28;20320;-49
2021/07/27 12:05:03;;;;;;;9.15;8.15;;;24.20;99.90;;;;;;5042399;28;20479;-47
2021/07/27 12:07:31;;;;;;;11.13;8.07;;;24.20;99.90;;;;;;5039527;28;20196;-45
2021/07/27 12:09:57;;;;;;;7.80;7.00;;;24.20;99.90;;;;;;5031677;28;20207;-45
2021/07/27 12:12:24;;;;;;;12.18;8.38;;;24.40;99.90;;;;;;5036468;28;20218;-44
2021/07/27 12:14:51;;;;;;;9.18;7.72;;;24.40;99.90;;;;;;5021680;28;20406;-48
2021/07/27 12:17:19;;;;;;;8.38;7.45;;;24.30;99.90;;;;;;5041426;28;20690;-44
2021/07/27 12:19:45;;;;;;;8.50;7.32;;;24.20;99.90;;;;;;5035421;28;20211;-44
2021/07/27 12:22:12;;;;;;;8.27;6.20;;;24.10;99.90;;;;;;5040876;28;20672;-46
2021/07/27 12:24:39;;;;;;;7.28;6.57;;;24.10;99.90;;;;;;5038483;28;20286;-47
2021/07/27 12:27:05;;;;;;;10.55;8.35;;;24.20;99.90;;;;;;5034006;28;20234;-44
2021/07/27 12:29:32;;;;;;;8.57;7.63;;;24.00;99.90;;;;;;5039035;28;20207;-44
2021/07/27 12:31:59;;;;;;;9.85;8.80;;;24.00;99.90;;;;;;5033757;28;20205;-44
2021/07/27 12:34:27;;;;;;;12.63;8.93;;;24.00;99.90;;;;;;5043592;28;20572;-45
2021/07/27 12:36:54;;;;;;;9.90;8.48;;;24.00;99.90;;;;;;5031699;28;20211;-45
2021/07/27 12:39:21;;;;;;;10.48;8.45;;;23.90;99.90;;;;;;5034740;28;20242;-44
2021/07/27 12:41:47;;;;;;;8.18;7.35;;;23.90;99.90;;;;;;5024540;28;20230;-44
2021/07/27 12:44:15;;;;;;;9.15;7.57;;;23.90;99.90;;;;;;5043582;28;20199;-44
2021/07/27 12:46:42;;;;;;;11.40;8.40;;;23.90;99.90;;;;;;5018224;28;20541;-45
2021/07/27 12:49:09;;;;;;;11.90;9.15;;;23.90;99.90;;;;;;5040555;28;20689;-44
2021/07/27 12:51:37;;;;;;;11.77;8.95;;;23.90;99.90;;;;;;5039463;28;20226;-43
2021/07/27 12:54:04;;;;;;;10.25;7.70;;;24.00;99.90;;;;;;5035302;28;20226;-43
2021/07/27 12:56:30;;;;;;;9.18;8.13;;;24.30;99.90;;;;;;5039739;28;20569;-44
2021/07/27 12:58:59;;;;;;;8.93;8.02;;;24.50;99.90;;;;;;5039981;28;20204;-45
2021/07/27 13:01:25;;;;;;;10.95;8.07;;;24.50;99.90;;;;;;5017567;28;20246;-44
2021/07/27 13:03:52;;;;;;;7.32;6.63;;;24.50;99.90;;;;;;5039055;28;20210;-45